VLG1ZA LEBL-GCLP
Flight info
| Callsign | VLG1ZA |
|---|---|
| Flight time | N/A |
| Altitude | 35000 |
| Route | LOTOS DCT TORDU DCT DIKUT DCT SOPET DCT VLC DCT SERRA DCT ASTRO DCT POBOS DCT XEBAR DCT YES DCT MAMIS DCT BAZAS DCT VIBAS DCT MGA DCT BRIKE DCT VJF L82 RUNAX UL82 IBALU UN857 TERTO |
| Aircraft | A321/M-SDE3FGHIRWY/LB1 |
Departure
| Time | 2026-04-28 15:11 |
|---|---|
| Airport | Josep Tarradellas Barcelona-El Prat Airport (LEBL) |
Arrival
| Time | N/A |
|---|---|
| Airport | Gran Canaria Airport (GCLP) |
| Time | Latitude | Longitude | Altitude | Speed | Heading |
|---|---|---|---|---|---|
| 2026-04-28 14:23 | 41.29050 | 2.07098 | 12 ft | 0 kts | 155° |
| 2026-04-28 14:54 | 41.29061 | 2.07091 | 19 ft | 4 kts | 155° |
| 2026-04-28 14:55 | 41.29085 | 2.07077 | 20 ft | 2 kts | 155° |
| 2026-04-28 14:55 | 41.29104 | 2.07063 | 23 ft | 4 kts | 126° |
| 2026-04-28 14:55 | 41.29109 | 2.07037 | 19 ft | 4 kts | 68° |
| 2026-04-28 14:55 | 41.29099 | 2.07008 | 21 ft | 2 kts | 65° |
| 2026-04-28 14:56 | 41.29099 | 2.07007 | 21 ft | 0 kts | 65° |
| 2026-04-28 14:59 | 41.29105 | 2.07024 | 20 ft | 4 kts | 67° |
| 2026-04-28 14:59 | 41.29122 | 2.07078 | 18 ft | 8 kts | 65° |
| 2026-04-28 14:59 | 41.29148 | 2.07151 | 18 ft | 9 kts | 65° |
| 2026-04-28 14:59 | 41.29176 | 2.07231 | 18 ft | 10 kts | 66° |
| 2026-04-28 15:00 | 41.29207 | 2.07324 | 20 ft | 12 kts | 65° |
| 2026-04-28 15:00 | 41.29244 | 2.07429 | 19 ft | 13 kts | 65° |
| 2026-04-28 15:00 | 41.29282 | 2.07543 | 17 ft | 9 kts | 65° |
| 2026-04-28 15:00 | 41.29333 | 2.07566 | 16 ft | 8 kts | 359° |
| 2026-04-28 15:01 | 41.29363 | 2.07614 | 16 ft | 7 kts | 71° |
| 2026-04-28 15:01 | 41.29373 | 2.07650 | 15 ft | 0 kts | 67° |
| 2026-04-28 15:03 | 41.29383 | 2.07681 | 16 ft | 7 kts | 66° |
| 2026-04-28 15:03 | 41.29410 | 2.07758 | 15 ft | 11 kts | 65° |
| 2026-04-28 15:03 | 41.29443 | 2.07853 | 16 ft | 12 kts | 65° |
| 2026-04-28 15:04 | 41.29478 | 2.07955 | 15 ft | 13 kts | 66° |
| 2026-04-28 15:04 | 41.29515 | 2.08065 | 16 ft | 13 kts | 66° |
| 2026-04-28 15:04 | 41.29554 | 2.08181 | 15 ft | 14 kts | 65° |
| 2026-04-28 15:04 | 41.29571 | 2.08306 | 16 ft | 14 kts | 79° |
| 2026-04-28 15:05 | 41.29608 | 2.08418 | 17 ft | 13 kts | 65° |
| 2026-04-28 15:05 | 41.29616 | 2.08514 | 17 ft | 10 kts | 127° |
| 2026-04-28 15:05 | 41.29549 | 2.08560 | 16 ft | 13 kts | 156° |
| 2026-04-28 15:05 | 41.29460 | 2.08614 | 14 ft | 15 kts | 155° |
| 2026-04-28 15:06 | 41.29366 | 2.08671 | 16 ft | 15 kts | 155° |
| 2026-04-28 15:06 | 41.29275 | 2.08727 | 18 ft | 15 kts | 155° |
| 2026-04-28 15:06 | 41.29176 | 2.08785 | 16 ft | 16 kts | 156° |
| 2026-04-28 15:06 | 41.29072 | 2.08846 | 15 ft | 17 kts | 156° |
| 2026-04-28 15:07 | 41.28969 | 2.08909 | 15 ft | 11 kts | 154° |
| 2026-04-28 15:07 | 41.28949 | 2.08984 | 16 ft | 11 kts | 73° |
| 2026-04-28 15:07 | 41.28982 | 2.09082 | 17 ft | 12 kts | 65° |
| 2026-04-28 15:07 | 41.29022 | 2.09196 | 18 ft | 15 kts | 65° |
| 2026-04-28 15:08 | 41.29067 | 2.09330 | 18 ft | 16 kts | 65° |
| 2026-04-28 15:08 | 41.29113 | 2.09465 | 18 ft | 16 kts | 65° |
| 2026-04-28 15:08 | 41.29161 | 2.09606 | 17 ft | 17 kts | 65° |
| 2026-04-28 15:08 | 41.29212 | 2.09751 | 18 ft | 18 kts | 65° |
| 2026-04-28 15:09 | 41.29263 | 2.09899 | 17 ft | 15 kts | 65° |
| 2026-04-28 15:09 | 41.29314 | 2.10017 | 17 ft | 15 kts | 61° |
| 2026-04-28 15:09 | 41.29360 | 2.10147 | 16 ft | 16 kts | 67° |
| 2026-04-28 15:09 | 41.29360 | 2.10243 | 16 ft | 16 kts | 120° |
| 2026-04-28 15:10 | 41.29246 | 2.10315 | 14 ft | 11 kts | 169° |
| 2026-04-28 15:10 | 41.29198 | 2.10261 | 16 ft | 10 kts | 245° |
| 2026-04-28 15:10 | 41.29123 | 2.10045 | 18 ft | 58 kts | 245° |
| 2026-04-28 15:10 | 41.28851 | 2.09257 | 18 ft | 126 kts | 245° |
| 2026-04-28 15:11 | 41.28418 | 2.07981 | 53 ft | 173 kts | 245° |
| 2026-04-28 15:11 | 41.27862 | 2.06584 | 749 ft | 167 kts | 225° |
| 2026-04-28 15:11 | 41.26842 | 2.05972 | 1343 ft | 166 kts | 178° |
| 2026-04-28 15:11 | 41.25623 | 2.06025 | 1579 ft | 185 kts | 178° |
| 2026-04-28 15:12 | 41.24275 | 2.06007 | 1822 ft | 203 kts | 180° |
| 2026-04-28 15:12 | 41.22795 | 2.05958 | 2057 ft | 221 kts | 181° |
| 2026-04-28 15:12 | 41.21227 | 2.05886 | 2587 ft | 229 kts | 181° |
| 2026-04-28 15:12 | 41.19677 | 2.05805 | 3527 ft | 213 kts | 181° |
| 2026-04-28 15:13 | 41.18233 | 2.05717 | 4238 ft | 212 kts | 184° |
| 2026-04-28 15:13 | 41.16791 | 2.05163 | 4658 ft | 225 kts | 204° |
| 2026-04-28 15:13 | 41.15355 | 2.04189 | 5028 ft | 237 kts | 205° |
| 2026-04-28 15:13 | 41.13879 | 2.03175 | 5677 ft | 239 kts | 206° |
| 2026-04-28 15:14 | 41.12392 | 2.02152 | 6372 ft | 242 kts | 206° |
| 2026-04-28 15:14 | 41.10889 | 2.01122 | 7012 ft | 244 kts | 206° |
| 2026-04-28 15:14 | 41.09372 | 2.00086 | 7650 ft | 246 kts | 206° |
| 2026-04-28 15:14 | 41.07953 | 1.98799 | 8279 ft | 251 kts | 224° |
| 2026-04-28 15:15 | 41.06900 | 1.96914 | 8750 ft | 264 kts | 243° |
| 2026-04-28 15:15 | 41.06475 | 1.95361 | 8905 ft | 278 kts | 254° |
| 2026-04-28 15:15 | 41.05809 | 1.91976 | 9643 ft | 287 kts | 253° |
| 2026-04-28 15:15 | 41.05281 | 1.89408 | 10240 ft | 292 kts | 251° |
| 2026-04-28 15:16 | 41.04549 | 1.86801 | 10388 ft | 313 kts | 247° |
| 2026-04-28 15:16 | 41.03734 | 1.84063 | 10515 ft | 334 kts | 247° |
| 2026-04-28 15:16 | 41.02846 | 1.81103 | 10813 ft | 347 kts | 247° |
| 2026-04-28 15:16 | 41.01963 | 1.78160 | 11383 ft | 350 kts | 247° |
| 2026-04-28 15:17 | 41.01063 | 1.75156 | 12014 ft | 352 kts | 248° |
| 2026-04-28 15:17 | 41.00162 | 1.72131 | 12669 ft | 354 kts | 248° |
| 2026-04-28 15:17 | 40.99257 | 1.69095 | 13326 ft | 355 kts | 248° |
| 2026-04-28 15:17 | 40.98346 | 1.66049 | 13974 ft | 357 kts | 248° |
| 2026-04-28 15:18 | 40.97429 | 1.62985 | 14537 ft | 359 kts | 248° |
| 2026-04-28 15:18 | 40.96503 | 1.59902 | 15104 ft | 361 kts | 248° |
| 2026-04-28 15:18 | 40.95575 | 1.56802 | 15686 ft | 363 kts | 248° |
| 2026-04-28 15:18 | 40.94709 | 1.53654 | 16261 ft | 366 kts | 251° |
| 2026-04-28 15:19 | 40.93926 | 1.50441 | 16826 ft | 368 kts | 252° |
| 2026-04-28 15:19 | 40.93190 | 1.47192 | 17390 ft | 370 kts | 253° |
| 2026-04-28 15:19 | 40.92463 | 1.43913 | 17944 ft | 373 kts | 253° |
| 2026-04-28 15:19 | 40.91725 | 1.40611 | 18460 ft | 375 kts | 252° |
| 2026-04-28 15:20 | 40.90968 | 1.37297 | 18919 ft | 378 kts | 252° |